Darstellungsparameter: Aktuell verwendete Einstellungen:
Skalierung der Graphiken ... ?
xyx+y,   Skalierungsfaktor:      Skalierung: Modus: x, Faktor: 1
Darstellungszeitraum ... ?
Vom - - bis: - -   Zeitraum: 23.04.2015 - 22.05.2015
Min/Max/Avg-Anzeige ... ?
Zeige MMA aktuell
Zeige MMA Monat
Zeige MMA alles
Zeige --A aktuell
Zeige --A Monat
Zeige --A alles
Keine MMA-Anzeige
MMA:
Average (ber die Originaldaten)
MMA-Basis: 23.04.2015 - 22.05.2015
Quicknavigation für Darstellung... ?
Tage:      1T, 2T, 3T, 5T -1T -2T -3T -5T +1T +2T +3T +5T
Wochen: 1W, 2W, 3W -1W -2W -3W +1W +2W +3W
Monate: 1M, 3M, 6M -1M -3M -6M +1M +3M +6M
Jahre:    1J, 3J, 5J, 10J -1J -3J -5J -10J +1J +3J +5J +10J
Nutze für die Darstellung ... ?
Originaldaten oder ...
Mittelwerte Minima Maxima auf...
Stundenbasis Tagesbasis Wochenbasis
Monatsbasis Jahresbasis      Datenbasis: Mittelwerte auf Stundenbasis
Darstellen als:
Statistik (Auto) Statistik J:M      Darstellung:
Zur Graphik,    zurück zur Übersicht aller Sensoren.
 
Tabellarische Datenbersicht: ?
 
Sensor: Nr:Datum:Temp:Abs-Feuchte:Windchill:Wind:
Aussen-T/F 1 23-04-2015 00:00:00 6.025 C 6.05 g/m*3 6.03 C 0.13333 km/h
2 23-04-2015 01:00:00 5.23333 C 5.91 g/m*3 5.23 C 0.13333 km/h
3 23-04-2015 02:00:00 4.51667 C 5.8 g/m*3 4.52 C 0 km/h
4 23-04-2015 03:00:00 3.99167 C 5.75 g/m*3 3.99 C 0.13333 km/h
5 23-04-2015 04:00:00 3.44167 C 5.63 g/m*3 3.44 C 0 km/h
6 23-04-2015 05:00:00 2.85 C 5.49 g/m*3 2.85 C 0 km/h
7 23-04-2015 06:00:00 2.35833 C 5.35 g/m*3 2.36 C 0.4 km/h
8 23-04-2015 07:00:00 2.55833 C 5.47 g/m*3 2.56 C 0.26667 km/h
9 23-04-2015 08:00:00 3.325 C 5.77 g/m*3 3.33 C 0 km/h
10 23-04-2015 09:00:00 5.24167 C 6.46 g/m*3 5.24 C 0.26667 km/h
11 23-04-2015 10:00:00 7.925 C 7.01 g/m*3 7.93 C 0.8 km/h
12 23-04-2015 11:00:00 11.84167 C 7.47 g/m*3 11.84 C 3.61667 km/h
13 23-04-2015 12:00:00 15.025 C 7.54 g/m*3 15.03 C 6.30833 km/h
14 23-04-2015 13:00:00 17.65833 C 7.53 g/m*3 17.66 C 7.10833 km/h
15 23-04-2015 14:00:00 18.95 C 6.96 g/m*3 18.95 C 7.24167 km/h
16 23-04-2015 15:00:00 19.55 C 6.79 g/m*3 19.55 C 7.25 km/h
17 23-04-2015 16:00:00 20.725 C 6.7 g/m*3 20.73 C 8.20833 km/h
18 23-04-2015 17:00:00 21.16667 C 6.6 g/m*3 21.17 C 8.74167 km/h
19 23-04-2015 18:00:00 20.84167 C 6.75 g/m*3 20.84 C 7.8 km/h
20 23-04-2015 19:00:00 19.925 C 6.93 g/m*3 19.93 C 3.86667 km/h
21 23-04-2015 20:00:00 14.90833 C 7.6 g/m*3 14.91 C 4.4 km/h
22 23-04-2015 21:00:00 12.23333 C 7.32 g/m*3 12.23 C 3.06667 km/h
23 23-04-2015 22:00:00 10.625 C 7.1 g/m*3 10.63 C 0.53333 km/h
24 23-04-2015 23:00:00 9.25833 C 6.84 g/m*3 9.26 C 0 km/h
25 24-04-2015 00:00:00 8.33333 C 6.77 g/m*3 8.33 C 0.13333 km/h
Sensor: Nr:Datum:Temp:Abs-Feuchte:Windchill:Wind:
Aussen-T/F 26 24-04-2015 01:00:00 7.43333 C 6.57 g/m*3 7.43 C 0.13333 km/h
27 24-04-2015 02:00:00 6.68333 C 6.46 g/m*3 6.68 C 0 km/h
28 24-04-2015 03:00:00 6.10833 C 6.38 g/m*3 6.11 C 0.66667 km/h
29 24-04-2015 04:00:00 5.35 C 6.21 g/m*3 5.35 C 0 km/h
30 24-04-2015 05:00:00 4.725 C 6.08 g/m*3 4.72 C 0 km/h
31 24-04-2015 06:00:00 4.25833 C 5.97 g/m*3 4.26 C 0.13333 km/h
32 24-04-2015 07:00:00 4.43333 C 6.09 g/m*3 4.43 C 0.26667 km/h
33 24-04-2015 08:00:00 5.53333 C 6.49 g/m*3 5.53 C 0.13333 km/h
34 24-04-2015 09:00:00 7.93333 C 7.13 g/m*3 7.93 C 0.4 km/h
35 24-04-2015 10:00:00 10.7 C 7.93 g/m*3 10.7 C 0.13333 km/h
36 24-04-2015 11:00:00 15.6 C 7.91 g/m*3 15.6 C 8.05 km/h
37 24-04-2015 12:00:00 19.09167 C 6.88 g/m*3 19.09 C 14.76667 km/h
38 24-04-2015 13:00:00 21.25 C 6.21 g/m*3 21.25 C 13.3 km/h
39 24-04-2015 14:00:00 22.4 C 5.74 g/m*3 22.4 C 13.16667 km/h
40 24-04-2015 15:00:00 23.125 C 6.11 g/m*3 23.13 C 12.21667 km/h
41 24-04-2015 16:00:00 24.225 C 5.75 g/m*3 24.23 C 13.03333 km/h
42 24-04-2015 17:00:00 24.2 C 5.52 g/m*3 24.2 C 12.75833 km/h
43 24-04-2015 18:00:00 23.63333 C 5.79 g/m*3 23.63 C 9.81667 km/h
44 24-04-2015 19:00:00 21.5 C 7.04 g/m*3 21.5 C 4.00833 km/h
45 24-04-2015 20:00:00 17.05833 C 7.25 g/m*3 17.06 C 4.13333 km/h
46 24-04-2015 21:00:00 14.34167 C 7.01 g/m*3 14.34 C 4.4 km/h
47 24-04-2015 22:00:00 12.875 C 6.98 g/m*3 12.88 C 0.93333 km/h
48 24-04-2015 23:00:00 11.625 C 6.84 g/m*3 11.63 C 0 km/h
49 25-04-2015 00:00:00 10.74167 C 6.83 g/m*3 10.74 C 0 km/h
50 25-04-2015 01:00:00 10.025 C 6.93 g/m*3 10.03 C 0.53333 km/h
Sensor: Nr:Datum:Temp:Abs-Feuchte:Windchill:Wind:
Aussen-T/F 51 25-04-2015 02:00:00 9.26667 C 7.01 g/m*3 9.27 C 0 km/h
52 25-04-2015 03:00:00 9.30833 C 7.21 g/m*3 9.31 C 0.26667 km/h
53 25-04-2015 04:00:00 9.30833 C 7.35 g/m*3 9.31 C 0.26667 km/h
54 25-04-2015 05:00:00 9.28333 C 7.53 g/m*3 9.28 C 0 km/h
55 25-04-2015 06:00:00 9.39167 C 7.7 g/m*3 9.39 C 0 km/h
56 25-04-2015 07:00:00 10.21667 C 7.95 g/m*3 10.22 C 0.26667 km/h
57 25-04-2015 08:00:00 10.99167 C 8.52 g/m*3 10.99 C 0.13333 km/h
58 25-04-2015 09:00:00 11.80833 C 9.17 g/m*3 11.81 C 0.26667 km/h
59 25-04-2015 10:00:00 12.51667 C 9.61 g/m*3 12.52 C 0.4 km/h
60 25-04-2015 11:00:00 14.35833 C 10.55 g/m*3 14.36 C 3.475 km/h
61 25-04-2015 12:00:00 15.725 C 10.61 g/m*3 15.73 C 10.20833 km/h
62 25-04-2015 13:00:00 17.29167 C 10.58 g/m*3 17.29 C 17.16667 km/h
63 25-04-2015 14:00:00 18.10833 C 10.18 g/m*3 18.11 C 17.03333 km/h
64 25-04-2015 15:00:00 17.41667 C 10.05 g/m*3 17.42 C 15.16667 km/h
65 25-04-2015 16:00:00 17.30833 C 10.48 g/m*3 17.31 C 16.36667 km/h
66 25-04-2015 17:00:00 16.1 C 10.62 g/m*3 16.1 C 9.14167 km/h
67 25-04-2015 18:00:00 15.39167 C 11.03 g/m*3 15.39 C 5.2 km/h
68 25-04-2015 19:00:00 14.80833 C 10.94 g/m*3 14.81 C 3.74167 km/h
69 25-04-2015 20:00:00 14.025 C 10.68 g/m*3 14.03 C 3.2 km/h
70 25-04-2015 21:00:00 13.06667 C 10.27 g/m*3 13.07 C 1.73333 km/h
71 25-04-2015 22:00:00 12.56667 C 10.07 g/m*3 12.57 C 0.93333 km/h
72 25-04-2015 23:00:00 11.89167 C 9.83 g/m*3 11.89 C 0 km/h
73 26-04-2015 00:00:00 11.54167 C 9.63 g/m*3 11.54 C 0 km/h
74 26-04-2015 01:00:00 11 C 9.39 g/m*3 11 C 0 km/h
75 26-04-2015 02:00:00 10.95 C 9.49 g/m*3 10.95 C 0 km/h
Sensor: Nr:Datum:Temp:Abs-Feuchte:Windchill:Wind:
Aussen-T/F 76 26-04-2015 03:00:00 10.86667 C 9.47 g/m*3 10.87 C 0 km/h
77 26-04-2015 04:00:00 10.86667 C 9.53 g/m*3 10.87 C 0 km/h
78 26-04-2015 05:00:00 11.33333 C 9.88 g/m*3 11.33 C 0 km/h
79 26-04-2015 06:00:00 11.40833 C 9.86 g/m*3 11.41 C 0 km/h
80 26-04-2015 07:00:00 11.50833 C 9.95 g/m*3 11.51 C 0 km/h
81 26-04-2015 08:00:00 12.88333 C 10.61 g/m*3 12.88 C 2.80833 km/h
82 26-04-2015 09:00:00 14.875 C 10.69 g/m*3 14.88 C 9.14167 km/h
83 26-04-2015 10:00:00 15.85833 C 10.64 g/m*3 15.86 C 10.625 km/h
84 26-04-2015 11:00:00 16.75 C 10.61 g/m*3 16.75 C 10.75833 km/h
85 26-04-2015 12:00:00 18.06667 C 10.54 g/m*3 18.07 C 14.1 km/h
86 26-04-2015 13:00:00 18.86667 C 10.48 g/m*3 18.87 C 13.7 km/h
87 26-04-2015 14:00:00 19.90833 C 10.08 g/m*3 19.91 C 15.16667 km/h
88 26-04-2015 15:00:00 20.43333 C 9.85 g/m*3 20.43 C 13.15833 km/h
89 26-04-2015 16:00:00 21.34167 C 9.62 g/m*3 21.34 C 13.7 km/h
90 26-04-2015 17:00:00 20.46667 C 9.47 g/m*3 20.47 C 7.53333 km/h
91 26-04-2015 18:00:00 20.51667 C 9.47 g/m*3 20.52 C 6.70833 km/h
92 26-04-2015 19:00:00 18.5 C 10.48 g/m*3 18.5 C 2.68333 km/h
93 26-04-2015 20:00:00 17.05 C 10.29 g/m*3 17.05 C 7.91667 km/h
94 26-04-2015 21:00:00 15.85 C 10.58 g/m*3 15.85 C 5.09167 km/h
95 26-04-2015 22:00:00 14.15 C 11.07 g/m*3 14.15 C 2.26667 km/h
96 26-04-2015 23:00:00 13.275 C 10.92 g/m*3 13.28 C 0.13333 km/h
97 27-04-2015 00:00:00 13.05833 C 10.92 g/m*3 13.06 C 0 km/h
98 27-04-2015 01:00:00 12.94167 C 10.88 g/m*3 12.94 C 0.26667 km/h
99 27-04-2015 02:00:00 12.75 C 10.81 g/m*3 12.75 C 3.61667 km/h
100 27-04-2015 03:00:00 12.44167 C 10.59 g/m*3 12.44 C 1.06667 km/h
Sensor: Nr:Datum:Temp:Abs-Feuchte:Windchill:Wind:
Aussen-T/F 101 27-04-2015 04:00:00 12.3 C 10.53 g/m*3 12.3 C 0 km/h
102 27-04-2015 05:00:00 12.2 C 10.47 g/m*3 12.2 C 0.53333 km/h
103 27-04-2015 06:00:00 12.10833 C 10.41 g/m*3 12.11 C 2.26667 km/h
104 27-04-2015 07:00:00 11.65 C 10.06 g/m*3 11.65 C 9.53333 km/h
105 27-04-2015 08:00:00 11.10833 C 9.57 g/m*3 11.11 C 3.06667 km/h
106 27-04-2015 09:00:00 11.725 C 9.88 g/m*3 11.73 C 3.34167 km/h
107 27-04-2015 10:00:00 11.75 C 9.76 g/m*3 11.75 C 9.55 km/h
108 27-04-2015 11:00:00 11.10833 C 9.43 g/m*3 11.11 C 10.75 km/h
109 27-04-2015 12:00:00 10.33333 C 9.03 g/m*3 9.38 C 8.06667 km/h
110 27-04-2015 13:00:00 10.21667 C 9.01 g/m*3 9.9 C 5.35 km/h
111 27-04-2015 14:00:00 10.00833 C 8.83 g/m*3 9.12 C 7.50833 km/h
112 27-04-2015 15:00:00 9.54167 C 8.53 g/m*3 8.8 C 6.575 km/h
113 27-04-2015 16:00:00 9.16667 C 8.27 g/m*3 8.16 C 7.39167 km/h
114 27-04-2015 17:00:00 8.70833 C 8.02 g/m*3 8.18 C 5.35833 km/h
115 27-04-2015 18:00:00 8.425 C 7.9 g/m*3 8.43 C 2.93333 km/h
116 27-04-2015 19:00:00 8.10833 C 7.74 g/m*3 8.11 C 4.95 km/h
117 27-04-2015 20:00:00 7.73333 C 7.47 g/m*3 7.73 C 4.01667 km/h
118 27-04-2015 21:00:00 7.65833 C 7.55 g/m*3 7.66 C 2.275 km/h
119 27-04-2015 22:00:00 7.63333 C 7.57 g/m*3 7.63 C 0.8 km/h
120 27-04-2015 23:00:00 7.40833 C 7.52 g/m*3 7.41 C 0.26667 km/h
121 28-04-2015 00:00:00 7.23333 C 7.47 g/m*3 7.23 C 0.53333 km/h
122 28-04-2015 01:00:00 7.25 C 7.42 g/m*3 7.25 C 2.8 km/h
123 28-04-2015 02:00:00 7.66667 C 7.33 g/m*3 7.67 C 4.69167 km/h
124 28-04-2015 03:00:00 7.24167 C 7.2 g/m*3 7.24 C 2.26667 km/h
125 28-04-2015 04:00:00 6.75 C 6.8 g/m*3 6.75 C 3.60833 km/h
Sensor: Nr:Datum:Temp:Abs-Feuchte:Windchill:Wind:
Aussen-T/F 126 28-04-2015 05:00:00 6.13333 C 6.63 g/m*3 6.13 C 4.95 km/h
127 28-04-2015 06:00:00 5.49167 C 6.35 g/m*3 5.49 C 3.61667 km/h
128 28-04-2015 07:00:00 5.15833 C 6.33 g/m*3 5.16 C 1.06667 km/h
129 28-04-2015 08:00:00 5.55833 C 6.45 g/m*3 5.56 C 1.86667 km/h
130 28-04-2015 09:00:00 6.99167 C 6.66 g/m*3 6.99 C 1.20833 km/h
131 28-04-2015 10:00:00 8.04167 C 6.92 g/m*3 8.04 C 2.275 km/h
132 28-04-2015 11:00:00 10.79167 C 6.94 g/m*3 10.44 C 5.775 km/h
133 28-04-2015 12:00:00 12.325 C 6.53 g/m*3 12.33 C 4.53333 km/h
134 28-04-2015 13:00:00 12.69167 C 6.27 g/m*3 12.69 C 8.33333 km/h
135 28-04-2015 14:00:00 13.16667 C 6.1 g/m*3 13.17 C 7.50833 km/h
136 28-04-2015 15:00:00 12.99167 C 5.83 g/m*3 12.99 C 11.025 km/h
137 28-04-2015 16:00:00 13.48333 C 6.22 g/m*3 13.48 C 11.68333 km/h
138 28-04-2015 17:00:00 14.16667 C 5.79 g/m*3 14.17 C 16.76667 km/h
139 28-04-2015 18:00:00 13.70833 C 5.75 g/m*3 13.71 C 9.13333 km/h
140 28-04-2015 19:00:00 13.88333 C 5.34 g/m*3 13.88 C 7.23333 km/h
141 28-04-2015 20:00:00 10.675 C 5.43 g/m*3 10.3 C 5.78333 km/h
142 28-04-2015 21:00:00 7.25 C 5.89 g/m*3 7.25 C 3.46667 km/h
143 28-04-2015 22:00:00 6.14167 C 5.69 g/m*3 6.14 C 2.26667 km/h
144 28-04-2015 23:00:00 4.9 C 5.47 g/m*3 4.9 C 0 km/h
145 29-04-2015 00:00:00 4.21667 C 5.37 g/m*3 4.22 C 0.8 km/h
146 29-04-2015 01:00:00 3.375 C 5.23 g/m*3 3.38 C 0.26667 km/h
147 29-04-2015 02:00:00 2.675 C 5.12 g/m*3 2.68 C 0.13333 km/h
148 29-04-2015 03:00:00 2 C 4.96 g/m*3 2 C 0.26667 km/h
149 29-04-2015 04:00:00 1.45 C 4.84 g/m*3 1.45 C 0 km/h
150 29-04-2015 05:00:00 1.03333 C 4.76 g/m*3 1.03 C 0.26667 km/h
Sensor: Nr:Datum:Temp:Abs-Feuchte:Windchill:Wind:
Aussen-T/F 151 29-04-2015 06:00:00 0.725 C 4.72 g/m*3 0.73 C 0 km/h
152 29-04-2015 07:00:00 1.01667 C 4.84 g/m*3 1.02 C 0 km/h
153 29-04-2015 08:00:00 2.29167 C 5.25 g/m*3 2.29 C 0 km/h
154 29-04-2015 09:00:00 4.63333 C 5.74 g/m*3 4.63 C 0 km/h
155 29-04-2015 10:00:00 7.325 C 6.35 g/m*3 7.33 C 1.2 km/h
156 29-04-2015 11:00:00 10.49167 C 6.66 g/m*3 10.49 C 2.26667 km/h
157 29-04-2015 12:00:00 13.5 C 6 g/m*3 13.5 C 5.75833 km/h
158 29-04-2015 13:00:00 14.8 C 5.71 g/m*3 14.8 C 8.05833 km/h
159 29-04-2015 14:00:00 15.15 C 5.82 g/m*3 15.15 C 8.05833 km/h
160 29-04-2015 15:00:00 15.74167 C 5.78 g/m*3 15.74 C 6.025 km/h
161 29-04-2015 16:00:00 15.725 C 5.99 g/m*3 15.73 C 5.35 km/h
162 29-04-2015 17:00:00 15.49167 C 6.3 g/m*3 15.49 C 3.6 km/h
163 29-04-2015 18:00:00 14.575 C 8.22 g/m*3 14.58 C 1.2 km/h
164 29-04-2015 19:00:00 13.33333 C 7.57 g/m*3 13.33 C 3.60833 km/h
165 29-04-2015 20:00:00 11.35 C 7.48 g/m*3 11.35 C 3.33333 km/h
166 29-04-2015 21:00:00 10.10833 C 7.29 g/m*3 10.11 C 1.73333 km/h
167 29-04-2015 22:00:00 9.30833 C 7.11 g/m*3 9.31 C 0.66667 km/h
168 29-04-2015 23:00:00 9.025 C 7.03 g/m*3 9.03 C 1.2 km/h
169 30-04-2015 00:00:00 8.91667 C 6.83 g/m*3 8.92 C 0.93333 km/h
170 30-04-2015 01:00:00 8.75 C 6.86 g/m*3 8.75 C 1.2 km/h
171 30-04-2015 02:00:00 8.35 C 6.78 g/m*3 8.35 C 1.06667 km/h
172 30-04-2015 03:00:00 7.90833 C 6.76 g/m*3 7.91 C 0.66667 km/h
173 30-04-2015 04:00:00 7.39167 C 6.72 g/m*3 7.39 C 0.93333 km/h
174 30-04-2015 05:00:00 7.28333 C 6.68 g/m*3 7.28 C 1.6 km/h
175 30-04-2015 06:00:00 7.075 C 6.79 g/m*3 7.08 C 0.26667 km/h
Sensor: Nr:Datum:Temp:Abs-Feuchte:Windchill:Wind:
Aussen-T/F 176 30-04-2015 07:00:00 7.01667 C 6.88 g/m*3 7.02 C 1.46667 km/h
177 30-04-2015 08:00:00 9.29167 C 7.15 g/m*3 7.34 C 12.76667 km/h
178 30-04-2015 09:00:00 10.15 C 7.13 g/m*3 8.24 C 13.83333 km/h
179 30-04-2015 10:00:00 11.44167 C 7.34 g/m*3 11.44 C 13.56667 km/h
180 30-04-2015 11:00:00 12.525 C 7.64 g/m*3 12.53 C 11.025 km/h
181 30-04-2015 12:00:00 13.45833 C 7.66 g/m*3 13.46 C 14.1 km/h
182 30-04-2015 13:00:00 14.10833 C 8.07 g/m*3 14.11 C 16.63333 km/h
183 30-04-2015 14:00:00 12.6 C 8.62 g/m*3 12.6 C 9.80833 km/h
184 30-04-2015 15:00:00 11.98333 C 8.69 g/m*3 11.98 C 14.625 km/h
185 30-04-2015 16:00:00 11.825 C 8.51 g/m*3 11.83 C 12.88333 km/h
186 30-04-2015 17:00:00 11.175 C 8.24 g/m*3 11.18 C 12.35833 km/h
187 30-04-2015 18:00:00 10.45833 C 7.96 g/m*3 8.74 C 12.9 km/h
188 30-04-2015 19:00:00 10.06667 C 7.88 g/m*3 8.89 C 8.99167 km/h
189 30-04-2015 20:00:00 9.625 C 7.93 g/m*3 9.63 C 4.15 km/h
190 30-04-2015 21:00:00 9.01667 C 7.96 g/m*3 9.02 C 2.00833 km/h
191 30-04-2015 22:00:00 8.48333 C 7.87 g/m*3 8.48 C 2.4 km/h
192 30-04-2015 23:00:00 7.68333 C 7.51 g/m*3 7.68 C 1.86667 km/h
193 01-05-2015 00:00:00 6.26667 C 6.91 g/m*3 6.27 C 1.06667 km/h
194 01-05-2015 01:00:00 5.975 C 6.88 g/m*3 5.98 C 0.13333 km/h
195 01-05-2015 02:00:00 5.6 C 6.72 g/m*3 5.6 C 0.66667 km/h
196 01-05-2015 03:00:00 4.80833 C 6.37 g/m*3 4.81 C 0.13333 km/h
197 01-05-2015 04:00:00 4.13333 C 6.09 g/m*3 4.13 C 0.13333 km/h
198 01-05-2015 05:00:00 4.225 C 6.17 g/m*3 4.22 C 0.13333 km/h
199 01-05-2015 06:00:00 4.325 C 6.24 g/m*3 4.33 C 0.13333 km/h
200 01-05-2015 07:00:00 4.6 C 6.35 g/m*3 4.6 C 0.13333 km/h
Sensor: Nr:Datum:Temp:Abs-Feuchte:Windchill:Wind:
Aussen-T/F 201 01-05-2015 08:00:00 5.125 C 6.58 g/m*3 5.13 C 0.53333 km/h
202 01-05-2015 09:00:00 6.03333 C 6.98 g/m*3 6.03 C 0.93333 km/h
203 01-05-2015 10:00:00 6.825 C 7.35 g/m*3 6.83 C 1.46667 km/h
204 01-05-2015 11:00:00 7.65833 C 7.71 g/m*3 7.66 C 3.73333 km/h
205 01-05-2015 12:00:00 9.70833 C 8.33 g/m*3 9.71 C 4.80833 km/h
206 01-05-2015 13:00:00 12.05 C 8.29 g/m*3 12.05 C 5.89167 km/h
207 01-05-2015 14:00:00 13.19167 C 7.04 g/m*3 13.19 C 8.2 km/h
208 01-05-2015 15:00:00 13.30833 C 6.11 g/m*3 13.31 C 5.89167 km/h
209 01-05-2015 16:00:00 13.21667 C 6.16 g/m*3 13.22 C 5.48333 km/h
210 01-05-2015 17:00:00 13.15833 C 6.17 g/m*3 13.16 C 5.35 km/h
211 01-05-2015 18:00:00 12.925 C 6.05 g/m*3 12.93 C 3.73333 km/h
212 01-05-2015 19:00:00 11.76667 C 7.41 g/m*3 11.77 C 0.53333 km/h
213 01-05-2015 20:00:00 9.78333 C 7.02 g/m*3 9.78 C 2 km/h
214 01-05-2015 21:00:00 8.24167 C 6.84 g/m*3 8.24 C 2.53333 km/h
215 01-05-2015 22:00:00 7.14167 C 6.64 g/m*3 7.14 C 0.26667 km/h
216 01-05-2015 23:00:00 6.07273 C 6.31 g/m*3 6.07 C 0 km/h
217 02-05-2015 00:00:00 5.725 C 6.33 g/m*3 5.73 C 0 km/h
218 02-05-2015 01:00:00 5.43333 C 6.31 g/m*3 5.43 C 0 km/h
219 02-05-2015 02:00:00 4.675 C 6.14 g/m*3 4.68 C 0 km/h
220 02-05-2015 03:00:00 4.18333 C 6.01 g/m*3 4.18 C 0 km/h
221 02-05-2015 04:00:00 3.625 C 5.83 g/m*3 3.63 C 0.13333 km/h
222 02-05-2015 05:00:00 2.925 C 5.58 g/m*3 2.93 C 0.26667 km/h
223 02-05-2015 06:00:00 2.95833 C 5.63 g/m*3 2.96 C 0.4 km/h
224 02-05-2015 07:00:00 3.69167 C 5.94 g/m*3 3.69 C 3.33333 km/h
225 02-05-2015 08:00:00 4.73333 C 6.41 g/m*3 4.73 C 1.06667 km/h
Sensor: Nr:Datum:Temp:Abs-Feuchte:Windchill:Wind:
Aussen-T/F 226 02-05-2015 09:00:00 6.51667 C 7.03 g/m*3 6.52 C 1.6 km/h
227 02-05-2015 10:00:00 8.61667 C 7.22 g/m*3 8.62 C 1.73333 km/h
228 02-05-2015 11:00:00 12.04167 C 7.79 g/m*3 12.04 C 2 km/h
229 02-05-2015 12:00:00 14.29167 C 7.64 g/m*3 14.29 C 3.86667 km/h
230 02-05-2015 13:00:00 15.9 C 7.45 g/m*3 15.9 C 4.93333 km/h
231 02-05-2015 14:00:00 16.60833 C 7.29 g/m*3 16.61 C 6.7 km/h
232 02-05-2015 15:00:00 17.46667 C 7.27 g/m*3 17.47 C 4.94167 km/h
233 02-05-2015 16:00:00 16.94167 C 7.22 g/m*3 16.94 C 2.93333 km/h
234 02-05-2015 17:00:00 16.46667 C 7.35 g/m*3 16.47 C 3.06667 km/h
235 02-05-2015 18:00:00 16.05 C 7.82 g/m*3 16.05 C 3.075 km/h
236 02-05-2015 19:00:00 14.70833 C 8.95 g/m*3 14.71 C 0.4 km/h
237 02-05-2015 20:00:00 12.75 C 8.89 g/m*3 12.75 C 1.06667 km/h
238 02-05-2015 21:00:00 10.74167 C 8.24 g/m*3 10.74 C 3.46667 km/h
239 02-05-2015 22:00:00 10.20833 C 8.1 g/m*3 10.21 C 2.13333 km/h
240 02-05-2015 23:00:00 10.09167 C 8.29 g/m*3 10.09 C 0 km/h
241 03-05-2015 00:00:00 10.31667 C 8.48 g/m*3 10.32 C 0 km/h
242 03-05-2015 01:00:00 10.41667 C 8.65 g/m*3 10.42 C 0 km/h
243 03-05-2015 02:00:00 10.475 C 8.72 g/m*3 10.48 C 0 km/h
244 03-05-2015 03:00:00 10.36667 C 8.78 g/m*3 10.37 C 0.66667 km/h
245 03-05-2015 04:00:00 10.575 C 8.97 g/m*3 10.58 C 0.26667 km/h
246 03-05-2015 05:00:00 10.68333 C 9.03 g/m*3 10.68 C 0 km/h
247 03-05-2015 06:00:00 10.73333 C 9.15 g/m*3 10.73 C 0 km/h
248 03-05-2015 07:00:00 11.23333 C 9.41 g/m*3 11.23 C 0 km/h
249 03-05-2015 08:00:00 12.16667 C 9.91 g/m*3 12.17 C 1.06667 km/h
250 03-05-2015 09:00:00 13.65833 C 10.53 g/m*3 13.66 C 4.13333 km/h
Sensor: Nr:Datum:Temp:Abs-Feuchte:Windchill:Wind:
Aussen-T/F 251 03-05-2015 10:00:00 14.825 C 10.85 g/m*3 14.83 C 5.225 km/h
252 03-05-2015 11:00:00 16.39167 C 11.4 g/m*3 16.39 C 5.475 km/h
253 03-05-2015 12:00:00 16.88333 C 11.71 g/m*3 16.88 C 5.075 km/h
254 03-05-2015 13:00:00 17.63333 C 12.05 g/m*3 17.63 C 6.71667 km/h
255 03-05-2015 14:00:00 17.6 C 12.12 g/m*3 17.6 C 8.04167 km/h
256 03-05-2015 15:00:00 16.95833 C 12.57 g/m*3 16.96 C 1.86667 km/h
257 03-05-2015 16:00:00 15.83333 C 12.35 g/m*3 15.83 C 1.2 km/h
258 03-05-2015 17:00:00 15.65 C 12.53 g/m*3 15.65 C 0.13333 km/h
259 03-05-2015 18:00:00 15.4375 C 12.41 g/m*3 15.44 C 0 km/h
260 03-05-2015 19:00:00 15.06 C 12.3 g/m*3 15.06 C 0 km/h
261 03-05-2015 20:00:00 15.125 C 12.4 g/m*3 15.13 C 0 km/h
262 03-05-2015 21:00:00 14.9 C 12.24 g/m*3 14.9 C 2.13333 km/h
263 03-05-2015 22:00:00 14.99167 C 12.22 g/m*3 14.99 C 3.875 km/h
264 03-05-2015 23:00:00 14.675 C 11.89 g/m*3 14.68 C 2.8 km/h
265 04-05-2015 00:00:00 14.51667 C 11.74 g/m*3 14.52 C 1.73333 km/h
266 04-05-2015 01:00:00 13.74167 C 11.34 g/m*3 13.74 C 0.8 km/h
267 04-05-2015 02:00:00 13.76667 C 11.41 g/m*3 13.77 C 0.93333 km/h
268 04-05-2015 03:00:00 13.11667 C 10.97 g/m*3 13.12 C 0.4 km/h
269 04-05-2015 04:00:00 12.56667 C 10.61 g/m*3 12.57 C 0 km/h
270 04-05-2015 05:00:00 12.21667 C 10.43 g/m*3 12.22 C 0.13333 km/h
271 04-05-2015 06:00:00 12.11667 C 10.4 g/m*3 12.12 C 0.13333 km/h
272 04-05-2015 07:00:00 12.525 C 10.68 g/m*3 12.53 C 0 km/h
273 04-05-2015 08:00:00 13.25 C 11.17 g/m*3 13.25 C 0.93333 km/h
274 04-05-2015 09:00:00 14.41667 C 11.57 g/m*3 14.42 C 5.76667 km/h
275 04-05-2015 10:00:00 15.33333 C 11.14 g/m*3 15.33 C 5.90833 km/h
Sensor: Nr:Datum:Temp:Abs-Feuchte:Windchill:Wind:
Aussen-T/F 276 04-05-2015 11:00:00 18.20833 C 10.61 g/m*3 18.21 C 12.9 km/h
277 04-05-2015 12:00:00 19.54167 C 10.05 g/m*3 19.54 C 13.01667 km/h
278 04-05-2015 13:00:00 21.26667 C 10.12 g/m*3 21.27 C 12.63333 km/h
279 04-05-2015 14:00:00 22.3 C 10.15 g/m*3 22.3 C 12.35833 km/h
280 04-05-2015 15:00:00 22.78333 C 10.01 g/m*3 22.78 C 10.36667 km/h
281 04-05-2015 16:00:00 23.05 C 10.05 g/m*3 23.05 C 7.65833 km/h
282 04-05-2015 17:00:00 21.93333 C 12.07 g/m*3 21.93 C 1.475 km/h
283 04-05-2015 18:00:00 20.125 C 12.72 g/m*3 20.13 C 1.2 km/h
284 04-05-2015 19:00:00 18.7 C 12.79 g/m*3 18.7 C 0.93333 km/h
285 04-05-2015 20:00:00 17.025 C 12.05 g/m*3 17.02 C 2.26667 km/h
286 04-05-2015 21:00:00 16.05833 C 11.82 g/m*3 16.06 C 2 km/h
287 04-05-2015 22:00:00 15.325 C 12.07 g/m*3 15.33 C 1.73333 km/h
288 04-05-2015 23:00:00 14.96667 C 12.03 g/m*3 14.97 C 1.33333 km/h
289 05-05-2015 00:00:00 15.06667 C 12.17 g/m*3 15.07 C 2 km/h
290 05-05-2015 01:00:00 16.1 C 12.5 g/m*3 16.1 C 5.08333 km/h
291 05-05-2015 02:00:00 15.88333 C 12.31 g/m*3 15.88 C 3.06667 km/h
292 05-05-2015 03:00:00 15.66667 C 12.25 g/m*3 15.67 C 2.4 km/h
293 05-05-2015 04:00:00 15.28333 C 12.12 g/m*3 15.28 C 2 km/h
294 05-05-2015 05:00:00 15.275 C 12.12 g/m*3 15.28 C 1.2 km/h
295 05-05-2015 06:00:00 16.025 C 12.52 g/m*3 16.02 C 3.06667 km/h
296 05-05-2015 07:00:00 16.025 C 12.69 g/m*3 16.02 C 1.46667 km/h
297 05-05-2015 08:00:00 16.51667 C 13.24 g/m*3 16.52 C 0.26667 km/h
298 05-05-2015 09:00:00 17.19167 C 13.86 g/m*3 17.19 C 0.26667 km/h
299 05-05-2015 10:00:00 19.08333 C 14.27 g/m*3 19.08 C 4.40833 km/h
300 05-05-2015 11:00:00 22.29167 C 13.24 g/m*3 22.29 C 14.475 km/h
Sensor: Nr:Datum:Temp:Abs-Feuchte:Windchill:Wind:
Aussen-T/F 301 05-05-2015 12:00:00 24.2 C 12.29 g/m*3 24.2 C 16.23333 km/h
302 05-05-2015 13:00:00 24.51667 C 11.28 g/m*3 24.52 C 20.24167 km/h
303 05-05-2015 14:00:00 24.35833 C 10.71 g/m*3 24.36 C 28.14167 km/h
304 05-05-2015 15:00:00 24.11667 C 10.17 g/m*3 24.12 C 26.68333 km/h
305 05-05-2015 16:00:00 22.53333 C 10.26 g/m*3 22.53 C 21.71667 km/h
306 05-05-2015 17:00:00 20.54167 C 10.15 g/m*3 20.54 C 15.83333 km/h
307 05-05-2015 18:00:00 20.55833 C 9.89 g/m*3 20.56 C 13.03333 km/h
308 05-05-2015 19:00:00 19.19167 C 9.63 g/m*3 19.19 C 7.775 km/h
309 05-05-2015 20:00:00 17.76667 C 9.83 g/m*3 17.77 C 4.825 km/h
310 05-05-2015 21:00:00 16.6 C 9.63 g/m*3 16.6 C 2.93333 km/h
311 05-05-2015 22:00:00 14.65833 C 9.07 g/m*3 14.66 C 1.73333 km/h
312 05-05-2015 23:00:00 13.35833 C 8.88 g/m*3 13.36 C 0.66667 km/h
313 06-05-2015 00:00:00 11.925 C 8.64 g/m*3 11.93 C 0.26667 km/h
314 06-05-2015 01:00:00 10.90833 C 8.43 g/m*3 10.91 C 0 km/h
315 06-05-2015 02:00:00 10.25 C 8.28 g/m*3 10.25 C 0 km/h
316 06-05-2015 03:00:00 9.625 C 8.14 g/m*3 9.63 C 0 km/h
317 06-05-2015 04:00:00 9.2 C 8.08 g/m*3 9.2 C 0 km/h
318 06-05-2015 05:00:00 8.95 C 8.04 g/m*3 8.95 C 0 km/h
319 06-05-2015 06:00:00 8.50833 C 7.9 g/m*3 8.51 C 0 km/h
320 06-05-2015 07:00:00 8.84167 C 8.12 g/m*3 8.84 C 0 km/h
321 06-05-2015 08:00:00 10.11667 C 8.48 g/m*3 10.12 C 2.275 km/h
322 06-05-2015 09:00:00 12.875 C 7.97 g/m*3 12.88 C 11.825 km/h
323 06-05-2015 10:00:00 14.14167 C 7.02 g/m*3 14.14 C 16.1 km/h
324 06-05-2015 11:00:00 15.85833 C 6.79 g/m*3 15.86 C 15.3 km/h
325 06-05-2015 12:00:00 16.60833 C 7.13 g/m*3 16.61 C 17.43333 km/h
Sensor: Nr:Datum:Temp:Abs-Feuchte:Windchill:Wind:
Aussen-T/F 326 06-05-2015 13:00:00 17.39167 C 7.33 g/m*3 17.39 C 17.30833 km/h
327 06-05-2015 14:00:00 18.19167 C 7.39 g/m*3 18.19 C 14.225 km/h
328 06-05-2015 15:00:00 18.75 C 7.24 g/m*3 18.75 C 18.5 km/h
329 06-05-2015 16:00:00 19.05 C 7.04 g/m*3 19.05 C 20.50833 km/h
330 06-05-2015 17:00:00 17.36667 C 7.3 g/m*3 17.37 C 21.31667 km/h
331 06-05-2015 18:00:00 15.69167 C 7.82 g/m*3 15.69 C 17.975 km/h
332 06-05-2015 19:00:00 16.15 C 7.63 g/m*3 16.15 C 12.09167 km/h
333 06-05-2015 20:00:00 15.04167 C 8.05 g/m*3 15.04 C 3.34167 km/h
334 06-05-2015 21:00:00 12.7 C 7.93 g/m*3 12.7 C 1.33333 km/h
335 06-05-2015 22:00:00 11.88333 C 7.83 g/m*3 11.88 C 1.73333 km/h
336 06-05-2015 23:00:00 10.53333 C 7.98 g/m*3 10.53 C 0.53333 km/h
337 07-05-2015 00:00:00 10.175 C 7.98 g/m*3 10.18 C 0.8 km/h
338 07-05-2015 01:00:00 10.36667 C 7.94 g/m*3 10.37 C 3.33333 km/h
339 07-05-2015 02:00:00 10.51667 C 7.9 g/m*3 10.52 C 3.73333 km/h
340 07-05-2015 03:00:00 10.1 C 7.86 g/m*3 10.1 C 2.675 km/h
341 07-05-2015 04:00:00 9.39167 C 7.78 g/m*3 9.39 C 2 km/h
342 07-05-2015 05:00:00 9.58333 C 7.78 g/m*3 9.58 C 2.8 km/h
343 07-05-2015 06:00:00 9.175 C 7.7 g/m*3 9.18 C 2.53333 km/h
344 07-05-2015 07:00:00 9.9 C 7.9 g/m*3 8.64 C 9.275 km/h
345 07-05-2015 08:00:00 10.59167 C 7.94 g/m*3 9.53 C 8.875 km/h
346 07-05-2015 09:00:00 11.78333 C 7.84 g/m*3 11.78 C 11.55833 km/h
347 07-05-2015 10:00:00 13.34167 C 7.64 g/m*3 13.34 C 12.49167 km/h
348 07-05-2015 11:00:00 14.875 C 7.31 g/m*3 14.88 C 13.7 km/h
349 07-05-2015 12:00:00 16.025 C 6.96 g/m*3 16.02 C 15.7 km/h
350 07-05-2015 13:00:00 17.03333 C 6.75 g/m*3 17.03 C 11.55833 km/h
Sensor: Nr:Datum:Temp:Abs-Feuchte:Windchill:Wind:
Aussen-T/F 351 07-05-2015 14:00:00 17.63333 C 6.56 g/m*3 17.63 C 10.9 km/h
352 07-05-2015 15:00:00 18.525 C 6.77 g/m*3 18.52 C 12.9 km/h
353 07-05-2015 16:00:00 19.30833 C 6.82 g/m*3 19.31 C 14.36667 km/h
354 07-05-2015 17:00:00 19.70833 C 6.61 g/m*3 19.71 C 11.825 km/h
355 07-05-2015 18:00:00 17.975 C 6.48 g/m*3 17.98 C 7.66667 km/h
356 07-05-2015 19:00:00 17.75 C 6.6 g/m*3 17.75 C 7.24167 km/h
357 07-05-2015 20:00:00 14.575 C 7.35 g/m*3 14.58 C 2.13333 km/h
358 07-05-2015 21:00:00 11.93333 C 7.34 g/m*3 11.93 C 0.4 km/h
359 07-05-2015 22:00:00 10.51667 C 7.18 g/m*3 10.52 C 0 km/h
360 07-05-2015 23:00:00 9.8 C 7.11 g/m*3 9.8 C 0 km/h
361 08-05-2015 00:00:00 8.75 C 6.83 g/m*3 8.75 C 0 km/h
362 08-05-2015 01:00:00 8.725 C 7.02 g/m*3 8.73 C 0 km/h
363 08-05-2015 02:00:00 8.51667 C 7.07 g/m*3 8.52 C 0 km/h
364 08-05-2015 03:00:00 8.35833 C 7.19 g/m*3 8.36 C 0 km/h
365 08-05-2015 04:00:00 8.19167 C 7.23 g/m*3 8.19 C 0 km/h
366 08-05-2015 05:00:00 8.03333 C 7.22 g/m*3 8.03 C 0 km/h
367 08-05-2015 06:00:00 7.9 C 7.26 g/m*3 7.9 C 0 km/h
368 08-05-2015 07:00:00 8.4 C 7.53 g/m*3 8.4 C 0 km/h
369 08-05-2015 08:00:00 10.11667 C 8.01 g/m*3 10.12 C 0 km/h
370 08-05-2015 09:00:00 12.225 C 8.31 g/m*3 12.23 C 0.4 km/h
371 08-05-2015 10:00:00 14.91667 C 8.7 g/m*3 14.92 C 3.46667 km/h
372 08-05-2015 11:00:00 18.525 C 8.82 g/m*3 18.52 C 6.3 km/h
373 08-05-2015 12:00:00 19.89167 C 8 g/m*3 19.89 C 9.825 km/h
374 08-05-2015 13:00:00 21.35 C 8.15 g/m*3 21.35 C 7.94167 km/h
375 08-05-2015 14:00:00 22.05 C 8.27 g/m*3 22.05 C 7.375 km/h
Sensor: Nr:Datum:Temp:Abs-Feuchte:Windchill:Wind:
Aussen-T/F 376 08-05-2015 15:00:00 23.03333 C 8.24 g/m*3 23.03 C 7.25833 km/h
377 08-05-2015 16:00:00 22.625 C 8.2 g/m*3 22.63 C 3.46667 km/h
378 08-05-2015 17:00:00 21.05833 C 9.47 g/m*3 21.06 C 2 km/h
379 08-05-2015 18:00:00 18.88333 C 9.08 g/m*3 18.88 C 1.73333 km/h
380 08-05-2015 19:00:00 16.91667 C 9.55 g/m*3 16.92 C 0.53333 km/h
381 08-05-2015 20:00:00 15.50833 C 9.46 g/m*3 15.51 C 1.2 km/h
382 08-05-2015 21:00:00 15.10833 C 9.3 g/m*3 15.11 C 0.66667 km/h
383 08-05-2015 22:00:00 14.51667 C 9.56 g/m*3 14.52 C 0.13333 km/h
384 08-05-2015 23:00:00 13.59167 C 9.39 g/m*3 13.59 C 0 km/h
385 09-05-2015 00:00:00 12.38333 C 8.9 g/m*3 12.38 C 0 km/h
386 09-05-2015 01:00:00 11.25833 C 8.51 g/m*3 11.26 C 0 km/h
387 09-05-2015 02:00:00 10.96667 C 8.55 g/m*3 10.97 C 0 km/h
388 09-05-2015 03:00:00 10.825 C 8.66 g/m*3 10.83 C 0 km/h
389 09-05-2015 04:00:00 10.79167 C 8.64 g/m*3 10.79 C 0.66667 km/h
390 09-05-2015 05:00:00 10.59167 C 8.68 g/m*3 10.59 C 0 km/h
391 09-05-2015 06:00:00 10.71667 C 8.93 g/m*3 10.72 C 0 km/h
392 09-05-2015 07:00:00 12.11667 C 9.64 g/m*3 12.12 C 3.48333 km/h
393 09-05-2015 08:00:00 14.975 C 10.62 g/m*3 14.98 C 9.68333 km/h
394 09-05-2015 09:00:00 16.08333 C 10.87 g/m*3 16.08 C 9.81667 km/h
395 09-05-2015 10:00:00 16.93333 C 11.07 g/m*3 16.93 C 12.76667 km/h
396 09-05-2015 11:00:00 18.24167 C 10.96 g/m*3 18.24 C 13.825 km/h
397 09-05-2015 12:00:00 18.38333 C 10.62 g/m*3 18.38 C 14.36667 km/h
398 09-05-2015 13:00:00 19.55833 C 10.44 g/m*3 19.56 C 15.16667 km/h
399 09-05-2015 14:00:00 21.275 C 9.83 g/m*3 21.28 C 18.5 km/h
400 09-05-2015 15:00:00 21.8 C 9.24 g/m*3 21.8 C 16.1 km/h
Sensor: Nr:Datum:Temp:Abs-Feuchte:Windchill:Wind:
Aussen-T/F 401 09-05-2015 16:00:00 21.38333 C 9.05 g/m*3 21.38 C 18.25 km/h
402 09-05-2015 17:00:00 20.88333 C 8.98 g/m*3 20.88 C 16.63333 km/h
403 09-05-2015 18:00:00 20.24167 C 8.49 g/m*3 20.24 C 13.69167 km/h
404 09-05-2015 19:00:00 16.34167 C 10.16 g/m*3 16.34 C 11 km/h
405 09-05-2015 20:00:00 13.93333 C 10.73 g/m*3 13.93 C 2.8 km/h
406 09-05-2015 21:00:00 12.55 C 10.31 g/m*3 12.55 C 2 km/h
407 09-05-2015 22:00:00 12.125 C 9.94 g/m*3 12.13 C 2.66667 km/h
408 09-05-2015 23:00:00 11.5 C 9.55 g/m*3 11.5 C 2.53333 km/h
409 10-05-2015 00:00:00 11.025 C 9.24 g/m*3 11.03 C 1.06667 km/h
410 10-05-2015 01:00:00 10.58333 C 9.06 g/m*3 10.58 C 2 km/h
411 10-05-2015 02:00:00 10.3 C 8.87 g/m*3 10.3 C 0.66667 km/h
412 10-05-2015 03:00:00 9.84167 C 8.67 g/m*3 9.84 C 1.06667 km/h
413 10-05-2015 04:00:00 10.21667 C 8.58 g/m*3 10.22 C 3.06667 km/h
414 10-05-2015 05:00:00 9.44167 C 8.24 g/m*3 9.44 C 1.46667 km/h
415 10-05-2015 06:00:00 9.21667 C 8.29 g/m*3 9.22 C 2.26667 km/h
416 10-05-2015 07:00:00 10.11667 C 8.63 g/m*3 9.56 C 6.15833 km/h
417 10-05-2015 08:00:00 11.225 C 9.11 g/m*3 11.23 C 8.475 km/h
418 10-05-2015 09:00:00 12.75 C 9.43 g/m*3 12.75 C 4.93333 km/h
419 10-05-2015 10:00:00 14.5 C 9.18 g/m*3 14.5 C 5.225 km/h
420 10-05-2015 11:00:00 16.53333 C 9.65 g/m*3 16.53 C 6.29167 km/h
421 10-05-2015 12:00:00 16.925 C 9.51 g/m*3 16.93 C 3.33333 km/h
422 10-05-2015 13:00:00 18.13333 C 9.68 g/m*3 18.13 C 3.86667 km/h
423 10-05-2015 14:00:00 20.26667 C 9.43 g/m*3 20.27 C 6.85 km/h
424 10-05-2015 15:00:00 21.16667 C 9.34 g/m*3 21.17 C 7.51667 km/h
425 10-05-2015 16:00:00 22.11667 C 9.05 g/m*3 22.12 C 7.79167 km/h
Sensor: Nr:Datum:Temp:Abs-Feuchte:Windchill:Wind:
Aussen-T/F 426 10-05-2015 17:00:00 22.48333 C 8.96 g/m*3 22.48 C 5.9 km/h
427 10-05-2015 18:00:00 21.45833 C 9.01 g/m*3 21.46 C 4.80833 km/h
428 10-05-2015 19:00:00 19.90833 C 10.6 g/m*3 19.91 C 1.33333 km/h
429 10-05-2015 20:00:00 16.6 C 10.58 g/m*3 16.6 C 0.8 km/h
430 10-05-2015 21:00:00 14.25 C 9.71 g/m*3 14.25 C 1.6 km/h
431 10-05-2015 22:00:00 13.25833 C 9.35 g/m*3 13.26 C 0.13333 km/h
432 10-05-2015 23:00:00 12.45833 C 9.15 g/m*3 12.46 C 0.26667 km/h
433 11-05-2015 00:00:00 11.5 C 8.93 g/m*3 11.5 C 0.53333 km/h
434 11-05-2015 01:00:00 11.35833 C 8.92 g/m*3 11.36 C 0 km/h
435 11-05-2015 02:00:00 10.50833 C 8.6 g/m*3 10.51 C 0 km/h
436 11-05-2015 03:00:00 9.60833 C 8.39 g/m*3 9.61 C 0 km/h
437 11-05-2015 04:00:00 9.2 C 8.29 g/m*3 9.2 C 0 km/h
438 11-05-2015 05:00:00 8.71667 C 8.1 g/m*3 8.72 C 0 km/h
439 11-05-2015 06:00:00 8.76667 C 8.19 g/m*3 8.77 C 0 km/h
440 11-05-2015 07:00:00 9.8 C 8.72 g/m*3 9.8 C 0 km/h
441 11-05-2015 08:00:00 11.40833 C 9.29 g/m*3 11.41 C 0 km/h
442 11-05-2015 09:00:00 13.575 C 9.68 g/m*3 13.58 C 0 km/h
443 11-05-2015 10:00:00 15.975 C 10.69 g/m*3 15.98 C 0 km/h
444 11-05-2015 11:00:00 19.825 C 10.96 g/m*3 19.83 C 4.13333 km/h
445 11-05-2015 12:00:00 22.25833 C 11.33 g/m*3 22.26 C 5.48333 km/h
446 11-05-2015 13:00:00 23.95833 C 11.45 g/m*3 23.96 C 5.88333 km/h
447 11-05-2015 14:00:00 24.425 C 11.76 g/m*3 24.43 C 6.16667 km/h
448 11-05-2015 15:00:00 26.49167 C 11.74 g/m*3 26.49 C 6.975 km/h
449 11-05-2015 16:00:00 26.64167 C 11.31 g/m*3 26.64 C 6.58333 km/h
450 11-05-2015 17:00:00 26.11667 C 11.93 g/m*3 26.12 C 5.21667 km/h
Sensor: Nr:Datum:Temp:Abs-Feuchte:Windchill:Wind:
Aussen-T/F 451 11-05-2015 18:00:00 26.43333 C 12.72 g/m*3 26.43 C 3.875 km/h
452 11-05-2015 19:00:00 22.76667 C 13.45 g/m*3 22.77 C 1.6 km/h
453 11-05-2015 20:00:00 20.06667 C 12.56 g/m*3 20.07 C 2.13333 km/h
454 11-05-2015 21:00:00 18.625 C 11.94 g/m*3 18.63 C 1.33333 km/h
455 11-05-2015 22:00:00 17.16667 C 11.47 g/m*3 17.17 C 0.13333 km/h
456 11-05-2015 23:00:00 15.88333 C 11.12 g/m*3 15.88 C 0 km/h
457 12-05-2015 00:00:00 14.79167 C 10.74 g/m*3 14.79 C 0 km/h
458 12-05-2015 01:00:00 14 C 10.58 g/m*3 14 C 0 km/h
459 12-05-2015 02:00:00 13.625 C 10.56 g/m*3 13.63 C 0 km/h
460 12-05-2015 03:00:00 13.29167 C 10.46 g/m*3 13.29 C 0.13333 km/h
461 12-05-2015 04:00:00 12.975 C 10.4 g/m*3 12.98 C 0.13333 km/h
462 12-05-2015 05:00:00 12.95833 C 10.43 g/m*3 12.96 C 0.13333 km/h
463 12-05-2015 06:00:00 12.94167 C 10.45 g/m*3 12.94 C 0 km/h
464 12-05-2015 07:00:00 13.61667 C 10.88 g/m*3 13.62 C 0.4 km/h
465 12-05-2015 08:00:00 15.33333 C 11.41 g/m*3 15.33 C 1.06667 km/h
466 12-05-2015 09:00:00 17.5 C 12.51 g/m*3 17.5 C 0.26667 km/h
467 12-05-2015 10:00:00 19.75833 C 13.8 g/m*3 19.76 C 0.66667 km/h
468 12-05-2015 11:00:00 23.09167 C 13.6 g/m*3 23.09 C 10.04167 km/h
469 12-05-2015 12:00:00 25.33333 C 13.11 g/m*3 25.33 C 15.03333 km/h
470 12-05-2015 13:00:00 27.10833 C 13.18 g/m*3 27.11 C 15.3 km/h
471 12-05-2015 14:00:00 27.20833 C 13.58 g/m*3 27.21 C 10.61667 km/h
472 12-05-2015 15:00:00 24.74167 C 14.12 g/m*3 24.74 C 13.01667 km/h
473 12-05-2015 16:00:00 20.95 C 14.76 g/m*3 20.95 C 3.06667 km/h
474 12-05-2015 17:00:00 19.26667 C 13.35 g/m*3 19.27 C 4.425 km/h
475 12-05-2015 18:00:00 19.25833 C 10.67 g/m*3 19.26 C 8.59167 km/h
Sensor: Nr:Datum:Temp:Abs-Feuchte:Windchill:Wind:
Aussen-T/F 476 12-05-2015 19:00:00 19.74167 C 9.87 g/m*3 19.74 C 11.96667 km/h
477 12-05-2015 20:00:00 18.73333 C 9.33 g/m*3 18.73 C 10.86667 km/h
478 12-05-2015 21:00:00 16.71667 C 9.14 g/m*3 16.72 C 8.725 km/h
479 12-05-2015 22:00:00 15.48333 C 8.12 g/m*3 15.48 C 4.425 km/h
480 12-05-2015 23:00:00 14.31667 C 7.64 g/m*3 14.32 C 5.63333 km/h
481 13-05-2015 00:00:00 13.25 C 7.79 g/m*3 13.25 C 4.95 km/h
482 13-05-2015 01:00:00 11.51667 C 7.9 g/m*3 11.52 C 0.26667 km/h
483 13-05-2015 02:00:00 10.16667 C 7.77 g/m*3 10.17 C 0.13333 km/h
484 13-05-2015 03:00:00 8.9 C 7.53 g/m*3 8.9 C 0.13333 km/h
485 13-05-2015 04:00:00 8.18333 C 7.4 g/m*3 8.18 C 0.4 km/h
486 13-05-2015 05:00:00 7.25833 C 7.12 g/m*3 7.26 C 0.13333 km/h
487 13-05-2015 06:00:00 6.80833 C 7.04 g/m*3 6.81 C 0 km/h
488 13-05-2015 07:00:00 7.14167 C 7.27 g/m*3 7.14 C 0 km/h
489 13-05-2015 08:00:00 8.95833 C 7.84 g/m*3 8.96 C 0 km/h
490 13-05-2015 09:00:00 10.25 C 8.21 g/m*3 10.25 C 0 km/h
491 13-05-2015 10:00:00 12.83333 C 8.84 g/m*3 12.83 C 1.33333 km/h
492 13-05-2015 11:00:00 17.3 C 8.53 g/m*3 17.3 C 3.6 km/h
493 13-05-2015 12:00:00 18.88333 C 7.98 g/m*3 18.88 C 5.35833 km/h
494 13-05-2015 13:00:00 21.04167 C 7.79 g/m*3 21.04 C 7.09167 km/h
495 13-05-2015 14:00:00 22.35833 C 7.18 g/m*3 22.36 C 7.10833 km/h
496 13-05-2015 15:00:00 22.88333 C 6.43 g/m*3 22.88 C 10.075 km/h
497 13-05-2015 16:00:00 20.575 C 8.52 g/m*3 20.58 C 1.33333 km/h
498 13-05-2015 17:00:00 18.975 C 9.86 g/m*3 18.98 C 0.93333 km/h
499 13-05-2015 18:00:00 17.94167 C 9.41 g/m*3 17.94 C 1.875 km/h
500 13-05-2015 19:00:00 18.10833 C 9.28 g/m*3 18.11 C 1.46667 km/h
Sensor: Nr:Datum:Temp:Abs-Feuchte:Windchill:Wind:
Aussen-T/F 501 13-05-2015 20:00:00 17.575 C 8.27 g/m*3 17.58 C 4.81667 km/h
502 13-05-2015 21:00:00 16.73333 C 8.08 g/m*3 16.73 C 4.275 km/h
503 13-05-2015 22:00:00 15.04167 C 8.25 g/m*3 15.04 C 2.26667 km/h
504 13-05-2015 23:00:00 14.16667 C 8.36 g/m*3 14.17 C 0.8 km/h
505 14-05-2015 00:00:00 14.175 C 8.37 g/m*3 14.18 C 2.8 km/h
506 14-05-2015 01:00:00 13.84167 C 7.94 g/m*3 13.84 C 4.55833 km/h
507 14-05-2015 02:00:00 13.06667 C 7.64 g/m*3 13.07 C 5.5 km/h
508 14-05-2015 03:00:00 11.65 C 7.48 g/m*3 11.65 C 5.5 km/h
509 14-05-2015 04:00:00 10.35 C 7.37 g/m*3 10.35 C 2.53333 km/h
510 14-05-2015 05:00:00 9.05833 C 7.19 g/m*3 9.06 C 2.66667 km/h
511 14-05-2015 06:00:00 8.45 C 7.17 g/m*3 8.45 C 0.93333 km/h
512 14-05-2015 07:00:00 8.55833 C 7.32 g/m*3 8.56 C 1.46667 km/h
513 14-05-2015 08:00:00 10.04167 C 7.72 g/m*3 10.04 C 0.93333 km/h
514 14-05-2015 09:00:00 10.98333 C 7.87 g/m*3 10.98 C 2.4 km/h
515 14-05-2015 10:00:00 13.125 C 8.23 g/m*3 13.13 C 3.46667 km/h
516 14-05-2015 11:00:00 15.76667 C 8.44 g/m*3 15.77 C 3.33333 km/h
517 14-05-2015 12:00:00 17.50833 C 8.5 g/m*3 17.51 C 4.14167 km/h
518 14-05-2015 13:00:00 18.36667 C 8.15 g/m*3 18.37 C 4.98889 km/h
519 14-05-2015 14:00:00 19.84167 C 8.16 g/m*3 19.84 C 6.425 km/h
520 14-05-2015 15:00:00 21.16667 C 8.17 g/m*3 21.17 C 6.3 km/h
521 14-05-2015 16:00:00 20 C 8.01 g/m*3 20 C 5.21667 km/h
522 14-05-2015 17:00:00 19.475 C 9.05 g/m*3 19.48 C 3.075 km/h
523 14-05-2015 18:00:00 16.54167 C 11.19 g/m*3 16.54 C 0.66667 km/h
524 14-05-2015 19:00:00 14.89167 C 11.07 g/m*3 14.89 C 0.26667 km/h
525 14-05-2015 20:00:00 13.78333 C 10.96 g/m*3 13.78 C 0.4 km/h
Sensor: Nr:Datum:Temp:Abs-Feuchte:Windchill:Wind:
Aussen-T/F 526 14-05-2015 21:00:00 13.35 C 10.87 g/m*3 13.35 C 0.26667 km/h
527 14-05-2015 22:00:00 13.25 C 10.92 g/m*3 13.25 C 0 km/h
528 14-05-2015 23:00:00 13.25833 C 10.95 g/m*3 13.26 C 0 km/h
529 15-05-2015 00:00:00 12.50833 C 10.45 g/m*3 12.51 C 0 km/h
530 15-05-2015 01:00:00 12.63333 C 10.63 g/m*3 12.63 C 0 km/h
531 15-05-2015 02:00:00 12.65 C 10.65 g/m*3 12.65 C 0 km/h
532 15-05-2015 03:00:00 12.63333 C 10.64 g/m*3 12.63 C 0 km/h
533 15-05-2015 04:00:00 12.56667 C 10.6 g/m*3 12.57 C 0 km/h
534 15-05-2015 05:00:00 11.99167 C 10.23 g/m*3 11.99 C 0.26667 km/h
535 15-05-2015 06:00:00 11.4 C 9.85 g/m*3 11.4 C 0.66667 km/h
536 15-05-2015 07:00:00 11.34167 C 9.82 g/m*3 11.34 C 0 km/h
537 15-05-2015 08:00:00 11.56667 C 9.87 g/m*3 11.57 C 0.8 km/h
538 15-05-2015 09:00:00 12.48333 C 10.15 g/m*3 12.48 C 5.08333 km/h
539 15-05-2015 10:00:00 12.94167 C 9.95 g/m*3 12.94 C 9.275 km/h
540 15-05-2015 11:00:00 13.725 C 10.21 g/m*3 13.73 C 9.275 km/h
541 15-05-2015 12:00:00 15.11667 C 10.54 g/m*3 15.12 C 10.9 km/h
542 15-05-2015 13:00:00 17.7 C 10.88 g/m*3 17.7 C 10.1 km/h
543 15-05-2015 14:00:00 19.13333 C 10.33 g/m*3 19.13 C 14.1 km/h
544 15-05-2015 15:00:00 20.26667 C 10.43 g/m*3 20.27 C 13.16667 km/h
545 15-05-2015 16:00:00 21.175 C 9.75 g/m*3 21.18 C 12.36667 km/h
546 15-05-2015 17:00:00 21.20833 C 9.29 g/m*3 21.21 C 15.43333 km/h
547 15-05-2015 18:00:00 20.76667 C 9.01 g/m*3 20.77 C 13.16667 km/h
548 15-05-2015 19:00:00 19.1 C 8.65 g/m*3 19.1 C 10.625 km/h
549 15-05-2015 20:00:00 17.08333 C 8.17 g/m*3 17.08 C 10.49167 km/h
550 15-05-2015 21:00:00 15.03333 C 7.88 g/m*3 15.03 C 5.90833 km/h
Sensor: Nr:Datum:Temp:Abs-Feuchte:Windchill:Wind:
Aussen-T/F 551 15-05-2015 22:00:00 13.58333 C 7.64 g/m*3 13.58 C 5.35833 km/h
552 15-05-2015 23:00:00 12.08333 C 7.54 g/m*3 12.08 C 1.46667 km/h
553 16-05-2015 00:00:00 10.73333 C 7.36 g/m*3 10.73 C 1.46667 km/h
554 16-05-2015 01:00:00 9.93333 C 7.28 g/m*3 9.93 C 0.13333 km/h
555 16-05-2015 02:00:00 8.775 C 7.2 g/m*3 8.78 C 0 km/h
556 16-05-2015 03:00:00 8.05833 C 7.19 g/m*3 8.06 C 0.8 km/h
557 16-05-2015 04:00:00 7.48333 C 7.09 g/m*3 7.48 C 0.53333 km/h
558 16-05-2015 05:00:00 6.84167 C 6.93 g/m*3 6.84 C 0.4 km/h
559 16-05-2015 06:00:00 6.525 C 6.93 g/m*3 6.53 C 1.06667 km/h
560 16-05-2015 07:00:00 6.79167 C 7.05 g/m*3 6.79 C 1.2 km/h
561 16-05-2015 08:00:00 9 C 7.63 g/m*3 8.55 C 5.225 km/h
562 16-05-2015 09:00:00 11.20833 C 7.93 g/m*3 11.21 C 6.15833 km/h
563 16-05-2015 10:00:00 12.53333 C 8.1 g/m*3 12.53 C 5.48333 km/h
564 16-05-2015 11:00:00 13.39167 C 8.46 g/m*3 13.39 C 4.675 km/h
565 16-05-2015 12:00:00 14.29167 C 8.38 g/m*3 14.29 C 8.05 km/h
566 16-05-2015 13:00:00 15.11667 C 8.33 g/m*3 15.12 C 9.80833 km/h
567 16-05-2015 14:00:00 15.175 C 8.31 g/m*3 15.18 C 12.36667 km/h
568 16-05-2015 15:00:00 14.99167 C 8.62 g/m*3 14.99 C 9.94167 km/h
569 16-05-2015 16:00:00 15.68333 C 9.07 g/m*3 15.68 C 5.34167 km/h
570 16-05-2015 17:00:00 15.85833 C 9.69 g/m*3 15.86 C 5.63333 km/h
571 16-05-2015 18:00:00 14.5 C 10.03 g/m*3 14.5 C 5.225 km/h
572 16-05-2015 19:00:00 14.175 C 10.27 g/m*3 14.18 C 1.33333 km/h
573 16-05-2015 20:00:00 14.425 C 10.18 g/m*3 14.43 C 5.23333 km/h
574 16-05-2015 21:00:00 14.63333 C 9.91 g/m*3 14.63 C 7.10833 km/h
575 16-05-2015 22:00:00 14.39167 C 9.94 g/m*3 14.39 C 4.28333 km/h
Sensor: Nr:Datum:Temp:Abs-Feuchte:Windchill:Wind:
Aussen-T/F 576 16-05-2015 23:00:00 13.85 C 9.95 g/m*3 13.85 C 5.225 km/h
577 17-05-2015 00:00:00 12.91667 C 9.89 g/m*3 12.92 C 1.86667 km/h
578 17-05-2015 01:00:00 11.93333 C 9.44 g/m*3 11.93 C 1.46667 km/h
579 17-05-2015 02:00:00 11.20833 C 8.87 g/m*3 11.21 C 2 km/h
580 17-05-2015 03:00:00 10.5 C 8.52 g/m*3 10.5 C 1.33333 km/h
581 17-05-2015 04:00:00 9.31667 C 8.13 g/m*3 9.32 C 0.26667 km/h
582 17-05-2015 05:00:00 8.48333 C 7.83 g/m*3 8.48 C 0 km/h
583 17-05-2015 06:00:00 8.225 C 7.72 g/m*3 8.23 C 0 km/h
584 17-05-2015 07:00:00 8.68333 C 7.9 g/m*3 8.68 C 0.26667 km/h
585 17-05-2015 08:00:00 10.71667 C 8.4 g/m*3 10.72 C 2.53333 km/h
586 17-05-2015 09:00:00 12.33333 C 8.51 g/m*3 12.33 C 4 km/h
587 17-05-2015 10:00:00 14.575 C 7.97 g/m*3 14.58 C 5.225 km/h
588 17-05-2015 11:00:00 16.45 C 6.92 g/m*3 16.45 C 5.5 km/h
589 17-05-2015 12:00:00 17.75 C 7.12 g/m*3 17.75 C 8.86667 km/h
590 17-05-2015 13:00:00 18.15 C 7.22 g/m*3 18.15 C 6.98333 km/h
591 17-05-2015 14:00:00 17.96667 C 7.4 g/m*3 17.97 C 7.925 km/h
592 17-05-2015 15:00:00 18.86667 C 7.61 g/m*3 18.87 C 5.075 km/h
593 17-05-2015 16:00:00 18.94167 C 7.88 g/m*3 18.94 C 4.15 km/h
594 17-05-2015 17:00:00 19.225 C 8.12 g/m*3 19.23 C 3.73333 km/h
595 17-05-2015 18:00:00 20.13333 C 7.97 g/m*3 20.13 C 4 km/h
596 17-05-2015 19:00:00 17.59167 C 9.97 g/m*3 17.59 C 0.26667 km/h
597 17-05-2015 20:00:00 15.63333 C 9.57 g/m*3 15.63 C 0.26667 km/h
598 17-05-2015 21:00:00 14.79167 C 9.07 g/m*3 14.79 C 0.93333 km/h
599 17-05-2015 22:00:00 13.55 C 8.83 g/m*3 13.55 C 1.06667 km/h
600 17-05-2015 23:00:00 12.6 C 8.52 g/m*3 12.6 C 0.26667 km/h
Sensor: Nr:Datum:Temp:Abs-Feuchte:Windchill:Wind:
Aussen-T/F 601 18-05-2015 00:00:00 11.41667 C 8.21 g/m*3 11.42 C 0 km/h
602 18-05-2015 01:00:00 10.23333 C 7.85 g/m*3 10.23 C 0 km/h
603 18-05-2015 02:00:00 9.55 C 7.75 g/m*3 9.55 C 0.26667 km/h
604 18-05-2015 03:00:00 8.59167 C 7.59 g/m*3 8.59 C 0 km/h
605 18-05-2015 04:00:00 7.90833 C 7.43 g/m*3 7.91 C 0 km/h
606 18-05-2015 05:00:00 7.325 C 7.25 g/m*3 7.33 C 0.13333 km/h
607 18-05-2015 06:00:00 7.10833 C 7.25 g/m*3 7.11 C 0 km/h
608 18-05-2015 07:00:00 7.54167 C 7.48 g/m*3 7.54 C 0.4 km/h
609 18-05-2015 08:00:00 9.475 C 8.2 g/m*3 9.48 C 0 km/h
610 18-05-2015 09:00:00 11.54167 C 8.93 g/m*3 11.54 C 0.8 km/h
611 18-05-2015 10:00:00 15.3 C 9.36 g/m*3 15.3 C 10.34167 km/h
612 18-05-2015 11:00:00 17.9 C 8.82 g/m*3 17.9 C 15.425 km/h
613 18-05-2015 12:00:00 18.90833 C 8.43 g/m*3 18.91 C 15.56667 km/h
614 18-05-2015 13:00:00 20.54167 C 8.16 g/m*3 20.54 C 15.975 km/h
615 18-05-2015 14:00:00 21.96667 C 7.75 g/m*3 21.97 C 15.96667 km/h
616 18-05-2015 15:00:00 22.78333 C 7.31 g/m*3 22.78 C 17.84167 km/h
617 18-05-2015 16:00:00 23.425 C 7.51 g/m*3 23.43 C 15.43333 km/h
618 18-05-2015 17:00:00 23.39167 C 7.6 g/m*3 23.39 C 14.9 km/h
619 18-05-2015 18:00:00 22.5 C 7.64 g/m*3 22.5 C 12.225 km/h
620 18-05-2015 19:00:00 21.625 C 8.02 g/m*3 21.63 C 10.74167 km/h
621 18-05-2015 20:00:00 19.625 C 8.48 g/m*3 19.63 C 3.74167 km/h
622 18-05-2015 21:00:00 17.675 C 8.36 g/m*3 17.68 C 2.4 km/h
623 18-05-2015 22:00:00 15.84167 C 8.64 g/m*3 15.84 C 1.6 km/h
624 18-05-2015 23:00:00 14.43333 C 8.62 g/m*3 14.43 C 0.8 km/h
625 19-05-2015 00:00:00 13.48333 C 8.68 g/m*3 13.48 C 3.75833 km/h
Sensor: Nr:Datum:Temp:Abs-Feuchte:Windchill:Wind:
Aussen-T/F 626 19-05-2015 01:00:00 13.15833 C 9.01 g/m*3 13.16 C 6.44167 km/h
627 19-05-2015 02:00:00 12.36667 C 8.52 g/m*3 12.37 C 5.9 km/h
628 19-05-2015 03:00:00 11.72727 C 8.38 g/m*3 11.73 C 2.61818 km/h
629 19-05-2015 06:00:00 8.25 C 7.31 g/m*3 8.25 C 4.8 km/h
630 19-05-2015 07:00:00 8.55 C 7 g/m*3 7.91 C 5.625 km/h
631 19-05-2015 08:00:00 10.43333 C 7.06 g/m*3 9.07 C 10.48333 km/h
632 19-05-2015 09:00:00 11.125 C 6.93 g/m*3 11.13 C 12.23333 km/h
633 19-05-2015 10:00:00 12.50833 C 6.96 g/m*3 12.51 C 11.83333 km/h
634 19-05-2015 11:00:00 13.68333 C 6.65 g/m*3 13.68 C 14.35833 km/h
635 19-05-2015 12:00:00 14.6 C 6.55 g/m*3 14.6 C 16.5 km/h
636 19-05-2015 13:00:00 15.36667 C 6.35 g/m*3 15.37 C 15.83333 km/h
637 19-05-2015 14:00:00 16.99167 C 6.35 g/m*3 16.99 C 18.23333 km/h
638 19-05-2015 15:00:00 16.99167 C 6.17 g/m*3 16.99 C 15.56667 km/h
639 19-05-2015 16:00:00 16.95833 C 6.16 g/m*3 16.96 C 15.16667 km/h
640 19-05-2015 17:00:00 16.51667 C 6.21 g/m*3 16.52 C 13.83333 km/h
641 19-05-2015 18:00:00 16.56667 C 6.46 g/m*3 16.57 C 12.625 km/h
642 19-05-2015 19:00:00 16.05833 C 6.21 g/m*3 16.06 C 10.08333 km/h
643 19-05-2015 20:00:00 14.59167 C 6.45 g/m*3 14.59 C 5.61667 km/h
644 19-05-2015 21:00:00 13.23333 C 6.85 g/m*3 13.23 C 1.46667 km/h
645 19-05-2015 22:00:00 11.43333 C 7.05 g/m*3 11.43 C 1.46667 km/h
646 19-05-2015 23:00:00 11.03333 C 7.18 g/m*3 11.03 C 0.53333 km/h
647 20-05-2015 00:00:00 10.43333 C 7.36 g/m*3 10.43 C 0.26667 km/h
648 20-05-2015 01:00:00 10.61667 C 7.35 g/m*3 10.62 C 1.86667 km/h
649 20-05-2015 02:00:00 10.39167 C 7.54 g/m*3 10.39 C 2.53333 km/h
650 20-05-2015 03:00:00 9.74167 C 7.72 g/m*3 9.74 C 0.53333 km/h
Sensor: Nr:Datum:Temp:Abs-Feuchte:Windchill:Wind:
Aussen-T/F 651 20-05-2015 04:00:00 9.21667 C 7.7 g/m*3 9.22 C 0.13333 km/h
652 20-05-2015 05:00:00 8.825 C 7.6 g/m*3 8.82 C 2.68333 km/h
653 20-05-2015 06:00:00 9.21667 C 7.66 g/m*3 9.22 C 0.26667 km/h
654 20-05-2015 07:00:00 9.7 C 7.68 g/m*3 9.7 C 4 km/h
655 20-05-2015 08:00:00 10.13333 C 7.58 g/m*3 9.45 C 6.70833 km/h
656 20-05-2015 09:00:00 11.03333 C 7.47 g/m*3 11.03 C 9.54167 km/h
657 20-05-2015 10:00:00 13.225 C 6.98 g/m*3 13.23 C 10.35 km/h
658 20-05-2015 11:00:00 13.475 C 6.55 g/m*3 13.48 C 9.675 km/h
659 20-05-2015 12:00:00 14.75833 C 6.4 g/m*3 14.76 C 7.78333 km/h
660 20-05-2015 13:00:00 15.725 C 6.24 g/m*3 15.73 C 11.94167 km/h
661 20-05-2015 14:00:00 14.3 C 6.76 g/m*3 14.3 C 8.6 km/h
662 20-05-2015 15:00:00 15.95833 C 7.12 g/m*3 15.96 C 10.75 km/h
663 20-05-2015 16:00:00 13.6 C 7.19 g/m*3 13.6 C 7.65 km/h
664 20-05-2015 17:00:00 14.95 C 8.05 g/m*3 14.95 C 3.2 km/h
665 20-05-2015 18:00:00 14.47778 C 7.67 g/m*3 14.48 C 3.56667 km/h
666 20-05-2015 19:00:00 14.04167 C 7.42 g/m*3 14.04 C 5.225 km/h
667 20-05-2015 20:00:00 13.5 C 7.46 g/m*3 13.5 C 4.00833 km/h
668 20-05-2015 21:00:00 10.69167 C 7.28 g/m*3 10.69 C 0.66667 km/h
669 20-05-2015 22:00:00 8.90833 C 7.03 g/m*3 8.91 C 0.66667 km/h
670 20-05-2015 23:00:00 8.175 C 7.03 g/m*3 8.18 C 0.8 km/h
671 21-05-2015 00:00:00 7.08333 C 6.8 g/m*3 7.08 C 0.13333 km/h
672 21-05-2015 01:00:00 6.7 C 6.81 g/m*3 6.7 C 0.93333 km/h
673 21-05-2015 02:00:00 5.925 C 6.6 g/m*3 5.93 C 1.46667 km/h
674 21-05-2015 03:00:00 5.58333 C 6.54 g/m*3 5.58 C 1.46667 km/h
675 21-05-2015 04:00:00 5.15833 C 6.39 g/m*3 5.16 C 1.6 km/h
Sensor: Nr:Datum:Temp:Abs-Feuchte:Windchill:Wind:
Aussen-T/F 676 21-05-2015 05:00:00 4.45 C 6.14 g/m*3 4.45 C 1.06667 km/h
677 21-05-2015 06:00:00 4.70833 C 6.3 g/m*3 3.47 C 5.775 km/h
678 21-05-2015 07:00:00 5.575 C 6.66 g/m*3 3.9 C 7.65833 km/h
679 21-05-2015 08:00:00 7.25 C 7.11 g/m*3 5.86 C 7.65833 km/h
680 21-05-2015 09:00:00 9.65833 C 7.59 g/m*3 9.22 C 5.48333 km/h
681 21-05-2015 10:00:00 12.49167 C 7.97 g/m*3 12.49 C 5.09167 km/h
682 21-05-2015 11:00:00 13.35833 C 7.98 g/m*3 13.36 C 6.56667 km/h
683 21-05-2015 12:00:00 15.04167 C 7.15 g/m*3 15.04 C 8.46667 km/h
684 21-05-2015 13:00:00 16.30833 C 6.78 g/m*3 16.31 C 11.025 km/h
685 21-05-2015 14:00:00 17.23333 C 6.46 g/m*3 17.23 C 10.60833 km/h
686 21-05-2015 15:00:00 17.1 C 6.4 g/m*3 17.1 C 7.65833 km/h
687 21-05-2015 16:00:00 18.375 C 6.35 g/m*3 18.38 C 8.86667 km/h
688 21-05-2015 17:00:00 18.68333 C 6.24 g/m*3 18.68 C 8.075 km/h
689 21-05-2015 18:00:00 18.58333 C 6.21 g/m*3 18.58 C 6.84167 km/h
690 21-05-2015 19:00:00 18.23333 C 6.44 g/m*3 18.23 C 9.69167 km/h
691 21-05-2015 20:00:00 15.93333 C 7.15 g/m*3 15.93 C 4.15 km/h
692 21-05-2015 21:00:00 12.53333 C 7.55 g/m*3 12.53 C 1.86667 km/h
693 21-05-2015 22:00:00 11.625 C 7.56 g/m*3 11.63 C 0.93333 km/h
694 21-05-2015 23:00:00 10.99167 C 7.64 g/m*3 10.99 C 0 km/h
695 22-05-2015 00:00:00 10.925 C 7.7 g/m*3 10.93 C 0 km/h
696 22-05-2015 01:00:00 11.1 C 7.77 g/m*3 11.1 C 1.06667 km/h
697 22-05-2015 02:00:00 10.73333 C 7.86 g/m*3 10.73 C 0 km/h
698 22-05-2015 03:00:00 9.69167 C 7.75 g/m*3 9.69 C 0.13333 km/h
699 22-05-2015 04:00:00 9.55833 C 7.81 g/m*3 9.56 C 0.26667 km/h
700 22-05-2015 05:00:00 9.025 C 7.72 g/m*3 9.03 C 0.13333 km/h
Sensor: Nr:Datum:Temp:Abs-Feuchte:Windchill:Wind:
Aussen-T/F 701 22-05-2015 06:00:00 8.76667 C 7.71 g/m*3 8.77 C 0 km/h
702 22-05-2015 07:00:00 9.86667 C 8.08 g/m*3 9.87 C 1.33333 km/h
703 22-05-2015 08:00:00 12.9 C 8.67 g/m*3 12.9 C 0.26667 km/h
704 22-05-2015 09:00:00 13.59167 C 8.69 g/m*3 13.59 C 1.46667 km/h
705 22-05-2015 10:00:00 15.81667 C 8.67 g/m*3 15.82 C 2.66667 km/h
706 22-05-2015 11:00:00 18.10833 C 8.61 g/m*3 18.11 C 4.4 km/h
707 22-05-2015 12:00:00 19.09167 C 8.14 g/m*3 19.09 C 6.29167 km/h
708 22-05-2015 13:00:00 20.4 C 7.71 g/m*3 20.4 C 7.10833 km/h
709 22-05-2015 14:00:00 21.525 C 7.24 g/m*3 21.53 C 7.38333 km/h
710 22-05-2015 15:00:00 22.34167 C 6.89 g/m*3 22.34 C 5.9 km/h
711 22-05-2015 16:00:00 22.98333 C 6.11 g/m*3 22.98 C 6.575 km/h
712 22-05-2015 17:00:00 23.21667 C 5.91 g/m*3 23.22 C 7.38333 km/h
713 22-05-2015 18:00:00 23.025 C 6.62 g/m*3 23.03 C 6.7 km/h
714 22-05-2015 19:00:00 20.41667 C 7.57 g/m*3 20.42 C 2.675 km/h
715 22-05-2015 20:00:00 19.50833 C 7.5 g/m*3 19.51 C 4.41667 km/h
716 22-05-2015 21:00:00 16.43333 C 7.6 g/m*3 16.43 C 1.06667 km/h
717 22-05-2015 22:00:00 14.45 C 7.83 g/m*3 14.45 C 0.93333 km/h
718 22-05-2015 23:00:00 14.45833 C 8.29 g/m*3 14.46 C 0 km/h

Maximal/Minimal-Werte vom 23.04.2015 - 22.05.2015

Sensor Min Max Avg
Temp
(Aussen-T/F)
0.7 °C
29-04-2015  06:10:00
28.3 °C
12-05-2015  14:45:00
13.38 °C
Abs-Feuchte
(Aussen-T/F)
4.72 g/m*3
29-04-2015  06:00:00
14.76 g/m*3
12-05-2015  16:00:00
8.43 g/m*3
Windchill
(Aussen-T/F)
0.73 C
29-04-2015  06:00:00
27.21 C
12-05-2015  14:00:00
13.33 C

Die Daten stammen von einer Davis Vantage Pro 2 Wetter-Station und werden unter Linux mit der Software wview2wettercgi und aufbereitet. Alle Angaben erfolgen ohne Gewähr für ihre Vollständigkeit oder Richtigkeit.
Kontakt: Rainer Krienke krienke@uni-koblenz.de . Meine Webseiten an der Uni Koblenz oder privat.
Version: $Revision: 0.78 $